sensor_id;sensor_type;location;lat;lon;timestamp;temperature;humidity
17918;DHT22;9084;50.956;3.106;2023-04-06T00:01:05;8.50;99.90
17918;DHT22;9084;50.956;3.106;2023-04-06T00:03:31;8.50;99.90
17918;DHT22;9084;50.956;3.106;2023-04-06T00:05:57;8.50;99.90
17918;DHT22;9084;50.956;3.106;2023-04-06T00:08:22;8.50;99.90
17918;DHT22;9084;50.956;3.106;2023-04-06T00:10:53;8.50;99.90
17918;DHT22;9084;50.956;3.106;2023-04-06T00:13:19;8.40;99.90
17918;DHT22;9084;50.956;3.106;2023-04-06T00:15:48;8.40;99.90
17918;DHT22;9084;50.956;3.106;2023-04-06T00:18:18;8.40;99.90
17918;DHT22;9084;50.956;3.106;2023-04-06T00:20:44;8.40;99.90
17918;DHT22;9084;50.956;3.106;2023-04-06T00:23:10;8.50;99.90
17918;DHT22;9084;50.956;3.106;2023-04-06T00:25:38;8.40;99.90
17918;DHT22;9084;50.956;3.106;2023-04-06T00:28:06;8.40;99.90
17918;DHT22;9084;50.956;3.106;2023-04-06T00:30:32;8.50;99.90
17918;DHT22;9084;50.956;3.106;2023-04-06T00:33:00;8.40;99.90
17918;DHT22;9084;50.956;3.106;2023-04-06T00:35:26;8.40;99.90
17918;DHT22;9084;50.956;3.106;2023-04-06T00:37:54;8.50;99.90
17918;DHT22;9084;50.956;3.106;2023-04-06T00:40:19;8.40;99.90
17918;DHT22;9084;50.956;3.106;2023-04-06T00:42:48;8.40;99.90
17918;DHT22;9084;50.956;3.106;2023-04-06T00:45:13;8.40;99.90
17918;DHT22;9084;50.956;3.106;2023-04-06T00:47:41;8.40;99.90
17918;DHT22;9084;50.956;3.106;2023-04-06T00:50:09;8.30;99.90
17918;DHT22;9084;50.956;3.106;2023-04-06T00:52:35;8.30;99.90
17918;DHT22;9084;50.956;3.106;2023-04-06T00:55:04;8.30;99.90
17918;DHT22;9084;50.956;3.106;2023-04-06T00:57:32;8.30;99.90
17918;DHT22;9084;50.956;3.106;2023-04-06T00:59:58;8.30;99.90
17918;DHT22;9084;50.956;3.106;2023-04-06T01:02:28;8.30;99.90
17918;DHT22;9084;50.956;3.106;2023-04-06T01:04:54;8.30;99.90
17918;DHT22;9084;50.956;3.106;2023-04-06T01:07:20;8.30;99.90
17918;DHT22;9084;50.956;3.106;2023-04-06T01:09:45;8.40;99.90
17918;DHT22;9084;50.956;3.106;2023-04-06T01:12:13;8.30;99.90
17918;DHT22;9084;50.956;3.106;2023-04-06T01:14:41;8.30;99.90
17918;DHT22;9084;50.956;3.106;2023-04-06T01:17:07;8.30;99.90
17918;DHT22;9084;50.956;3.106;2023-04-06T01:19:32;8.30;99.90
17918;DHT22;9084;50.956;3.106;2023-04-06T01:21:58;8.30;99.90
17918;DHT22;9084;50.956;3.106;2023-04-06T01:24:24;8.30;99.90
17918;DHT22;9084;50.956;3.106;2023-04-06T01:26:52;8.20;99.90
17918;DHT22;9084;50.956;3.106;2023-04-06T01:29:19;8.30;99.90
17918;DHT22;9084;50.956;3.106;2023-04-06T01:31:45;8.30;99.90
17918;DHT22;9084;50.956;3.106;2023-04-06T01:34:11;8.30;99.90
17918;DHT22;9084;50.956;3.106;2023-04-06T01:36:39;8.30;99.90
17918;DHT22;9084;50.956;3.106;2023-04-06T01:39:07;8.30;99.90
17918;DHT22;9084;50.956;3.106;2023-04-06T01:41:37;8.30;99.90
17918;DHT22;9084;50.956;3.106;2023-04-06T01:44:05;8.20;99.90
17918;DHT22;9084;50.956;3.106;2023-04-06T01:46:31;8.20;99.90
17918;DHT22;9084;50.956;3.106;2023-04-06T01:48:57;8.20;99.90
17918;DHT22;9084;50.956;3.106;2023-04-06T01:51:25;8.30;99.90
17918;DHT22;9084;50.956;3.106;2023-04-06T01:53:52;8.30;99.90
17918;DHT22;9084;50.956;3.106;2023-04-06T01:56:18;8.30;99.90
17918;DHT22;9084;50.956;3.106;2023-04-06T01:58:43;8.30;99.90
17918;DHT22;9084;50.956;3.106;2023-04-06T02:01:09;8.30;99.90
17918;DHT22;9084;50.956;3.106;2023-04-06T02:03:37;8.40;99.90
17918;DHT22;9084;50.956;3.106;2023-04-06T02:06:03;8.30;99.90
17918;DHT22;9084;50.956;3.106;2023-04-06T02:08:29;8.30;99.90
17918;DHT22;9084;50.956;3.106;2023-04-06T02:10:54;8.40;99.90
17918;DHT22;9084;50.956;3.106;2023-04-06T02:13:23;8.40;99.90
17918;DHT22;9084;50.956;3.106;2023-04-06T02:15:48;8.40;99.90
17918;DHT22;9084;50.956;3.106;2023-04-06T02:18:14;8.40;99.90
17918;DHT22;9084;50.956;3.106;2023-04-06T02:20:40;8.40;99.90
17918;DHT22;9084;50.956;3.106;2023-04-06T02:23:06;8.40;99.90
17918;DHT22;9084;50.956;3.106;2023-04-06T02:25:32;8.30;99.90
17918;DHT22;9084;50.956;3.106;2023-04-06T02:28:03;8.40;99.90
17918;DHT22;9084;50.956;3.106;2023-04-06T02:30:31;8.40;99.90
17918;DHT22;9084;50.956;3.106;2023-04-06T02:33:00;8.40;99.90
17918;DHT22;9084;50.956;3.106;2023-04-06T02:35:27;8.40;99.90
17918;DHT22;9084;50.956;3.106;2023-04-06T02:37:55;8.40;99.90
17918;DHT22;9084;50.956;3.106;2023-04-06T02:40:26;8.40;99.90
17918;DHT22;9084;50.956;3.106;2023-04-06T02:42:53;8.40;99.90
17918;DHT22;9084;50.956;3.106;2023-04-06T02:45:19;8.40;99.90
17918;DHT22;9084;50.956;3.106;2023-04-06T02:47:45;8.40;99.90
17918;DHT22;9084;50.956;3.106;2023-04-06T02:50:13;8.40;99.90
17918;DHT22;9084;50.956;3.106;2023-04-06T02:52:42;8.40;99.90
17918;DHT22;9084;50.956;3.106;2023-04-06T02:55:10;8.40;99.90
17918;DHT22;9084;50.956;3.106;2023-04-06T02:57:38;8.40;99.90
17918;DHT22;9084;50.956;3.106;2023-04-06T03:00:07;8.40;99.90
17918;DHT22;9084;50.956;3.106;2023-04-06T03:02:33;8.40;99.90
17918;DHT22;9084;50.956;3.106;2023-04-06T03:04:59;8.40;99.90
17918;DHT22;9084;50.956;3.106;2023-04-06T03:07:28;8.50;99.90
17918;DHT22;9084;50.956;3.106;2023-04-06T03:09:56;8.40;99.90
17918;DHT22;9084;50.956;3.106;2023-04-06T03:12:22;8.40;99.90
17918;DHT22;9084;50.956;3.106;2023-04-06T03:14:50;8.50;99.90
17918;DHT22;9084;50.956;3.106;2023-04-06T03:17:18;8.40;99.90
17918;DHT22;9084;50.956;3.106;2023-04-06T03:19:46;8.50;99.90
17918;DHT22;9084;50.956;3.106;2023-04-06T03:22:11;8.50;99.90
17918;DHT22;9084;50.956;3.106;2023-04-06T03:24:39;8.50;99.90
17918;DHT22;9084;50.956;3.106;2023-04-06T03:27:05;8.50;99.90
17918;DHT22;9084;50.956;3.106;2023-04-06T03:29:34;8.50;99.90
17918;DHT22;9084;50.956;3.106;2023-04-06T03:31:59;8.40;99.90
17918;DHT22;9084;50.956;3.106;2023-04-06T03:34:30;8.50;99.90
17918;DHT22;9084;50.956;3.106;2023-04-06T03:36:57;8.50;99.90
17918;DHT22;9084;50.956;3.106;2023-04-06T03:39:23;8.40;99.90
17918;DHT22;9084;50.956;3.106;2023-04-06T03:41:51;8.40;99.90
17918;DHT22;9084;50.956;3.106;2023-04-06T03:44:17;8.50;99.90
17918;DHT22;9084;50.956;3.106;2023-04-06T03:46:45;8.50;99.90
17918;DHT22;9084;50.956;3.106;2023-04-06T03:49:13;8.50;99.90
17918;DHT22;9084;50.956;3.106;2023-04-06T03:51:41;8.50;99.90
17918;DHT22;9084;50.956;3.106;2023-04-06T03:54:07;8.50;99.90
17918;DHT22;9084;50.956;3.106;2023-04-06T03:56:32;8.50;99.90
17918;DHT22;9084;50.956;3.106;2023-04-06T03:58:58;8.40;99.90
17918;DHT22;9084;50.956;3.106;2023-04-06T04:01:27;8.40;99.90
17918;DHT22;9084;50.956;3.106;2023-04-06T04:03:55;8.40;99.90
17918;DHT22;9084;50.956;3.106;2023-04-06T04:06:21;8.40;99.90
17918;DHT22;9084;50.956;3.106;2023-04-06T04:08:46;8.30;99.90
17918;DHT22;9084;50.956;3.106;2023-04-06T04:11:14;8.30;99.90
17918;DHT22;9084;50.956;3.106;2023-04-06T04:13:41;8.30;99.90
17918;DHT22;9084;50.956;3.106;2023-04-06T04:16:06;8.30;99.90
17918;DHT22;9084;50.956;3.106;2023-04-06T04:18:34;8.30;99.90
17918;DHT22;9084;50.956;3.106;2023-04-06T04:21:02;8.30;99.90
17918;DHT22;9084;50.956;3.106;2023-04-06T04:23:30;8.20;99.90
17918;DHT22;9084;50.956;3.106;2023-04-06T04:25:56;8.20;99.90
17918;DHT22;9084;50.956;3.106;2023-04-06T04:28:21;8.20;99.90
17918;DHT22;9084;50.956;3.106;2023-04-06T04:30:49;8.20;99.90
17918;DHT22;9084;50.956;3.106;2023-04-06T04:33:18;8.20;99.90
17918;DHT22;9084;50.956;3.106;2023-04-06T04:35:43;8.20;99.90
17918;DHT22;9084;50.956;3.106;2023-04-06T04:38:11;8.20;99.90
17918;DHT22;9084;50.956;3.106;2023-04-06T04:40:37;8.20;99.90
17918;DHT22;9084;50.956;3.106;2023-04-06T04:43:02;8.20;99.90
17918;DHT22;9084;50.956;3.106;2023-04-06T04:45:30;8.20;99.90
17918;DHT22;9084;50.956;3.106;2023-04-06T04:47:56;8.20;99.90
17918;DHT22;9084;50.956;3.106;2023-04-06T04:50:22;8.20;99.90
17918;DHT22;9084;50.956;3.106;2023-04-06T04:52:47;8.20;99.90
17918;DHT22;9084;50.956;3.106;2023-04-06T04:55:13;8.20;99.90
17918;DHT22;9084;50.956;3.106;2023-04-06T04:57:39;8.20;99.90
17918;DHT22;9084;50.956;3.106;2023-04-06T05:00:05;8.20;99.90
17918;DHT22;9084;50.956;3.106;2023-04-06T05:02:31;8.10;99.90
17918;DHT22;9084;50.956;3.106;2023-04-06T05:04:59;8.10;99.90
17918;DHT22;9084;50.956;3.106;2023-04-06T05:07:27;8.10;99.90
17918;DHT22;9084;50.956;3.106;2023-04-06T05:09:55;8.10;99.90
17918;DHT22;9084;50.956;3.106;2023-04-06T05:12:21;8.10;99.90
17918;DHT22;9084;50.956;3.106;2023-04-06T05:14:47;8.10;99.90
17918;DHT22;9084;50.956;3.106;2023-04-06T05:17:15;8.10;99.90
17918;DHT22;9084;50.956;3.106;2023-04-06T05:19:41;8.00;99.90
17918;DHT22;9084;50.956;3.106;2023-04-06T05:22:06;8.00;99.90
17918;DHT22;9084;50.956;3.106;2023-04-06T05:24:32;8.00;99.90
17918;DHT22;9084;50.956;3.106;2023-04-06T05:27:00;8.00;99.90
17918;DHT22;9084;50.956;3.106;2023-04-06T05:29:28;8.00;99.90
17918;DHT22;9084;50.956;3.106;2023-04-06T05:31:59;8.00;99.90
17918;DHT22;9084;50.956;3.106;2023-04-06T05:34:27;8.10;99.90
17918;DHT22;9084;50.956;3.106;2023-04-06T05:36:55;8.10;99.90
17918;DHT22;9084;50.956;3.106;2023-04-06T05:39:23;8.00;99.90
17918;DHT22;9084;50.956;3.106;2023-04-06T05:41:49;8.00;99.90
17918;DHT22;9084;50.956;3.106;2023-04-06T05:44:17;8.00;99.90
17918;DHT22;9084;50.956;3.106;2023-04-06T05:46:42;8.00;99.90
17918;DHT22;9084;50.956;3.106;2023-04-06T05:49:10;8.00;99.90
17918;DHT22;9084;50.956;3.106;2023-04-06T05:51:38;8.10;99.90
17918;DHT22;9084;50.956;3.106;2023-04-06T05:54:04;8.10;99.90
17918;DHT22;9084;50.956;3.106;2023-04-06T05:56:32;8.10;99.90
17918;DHT22;9084;50.956;3.106;2023-04-06T05:58:58;8.10;99.90
17918;DHT22;9084;50.956;3.106;2023-04-06T06:01:26;8.10;99.90
17918;DHT22;9084;50.956;3.106;2023-04-06T06:03:51;8.10;99.90
17918;DHT22;9084;50.956;3.106;2023-04-06T06:06:20;8.20;99.90
17918;DHT22;9084;50.956;3.106;2023-04-06T06:08:45;8.20;99.90
17918;DHT22;9084;50.956;3.106;2023-04-06T06:11:13;8.20;99.90
17918;DHT22;9084;50.956;3.106;2023-04-06T06:13:39;8.20;99.90
17918;DHT22;9084;50.956;3.106;2023-04-06T06:16:05;8.20;99.90
17918;DHT22;9084;50.956;3.106;2023-04-06T06:18:31;8.20;99.90
17918;DHT22;9084;50.956;3.106;2023-04-06T06:20:59;8.20;99.90
17918;DHT22;9084;50.956;3.106;2023-04-06T06:23:28;8.20;99.90
17918;DHT22;9084;50.956;3.106;2023-04-06T06:25:53;8.20;99.90
17918;DHT22;9084;50.956;3.106;2023-04-06T06:28:19;8.20;99.90
17918;DHT22;9084;50.956;3.106;2023-04-06T06:30:47;8.20;99.90
17918;DHT22;9084;50.956;3.106;2023-04-06T06:33:15;8.20;99.90
17918;DHT22;9084;50.956;3.106;2023-04-06T06:35:43;8.20;99.90
17918;DHT22;9084;50.956;3.106;2023-04-06T06:38:13;8.20;99.90
17918;DHT22;9084;50.956;3.106;2023-04-06T06:40:40;8.20;99.90
17918;DHT22;9084;50.956;3.106;2023-04-06T06:43:06;8.20;99.90
17918;DHT22;9084;50.956;3.106;2023-04-06T06:45:32;8.20;99.90
17918;DHT22;9084;50.956;3.106;2023-04-06T06:48:00;8.20;99.90
17918;DHT22;9084;50.956;3.106;2023-04-06T06:50:26;8.30;99.90
17918;DHT22;9084;50.956;3.106;2023-04-06T06:52:52;8.30;99.90
17918;DHT22;9084;50.956;3.106;2023-04-06T06:55:17;8.30;99.90
17918;DHT22;9084;50.956;3.106;2023-04-06T06:57:44;8.40;99.90
17918;DHT22;9084;50.956;3.106;2023-04-06T07:00:12;8.40;99.90
17918;DHT22;9084;50.956;3.106;2023-04-06T07:02:39;8.40;99.90
17918;DHT22;9084;50.956;3.106;2023-04-06T07:05:05;8.40;99.90
17918;DHT22;9084;50.956;3.106;2023-04-06T07:07:32;8.50;99.90
17918;DHT22;9084;50.956;3.106;2023-04-06T07:10:00;8.40;99.90
17918;DHT22;9084;50.956;3.106;2023-04-06T07:12:26;8.40;99.90
17918;DHT22;9084;50.956;3.106;2023-04-06T07:14:58;8.40;99.90
17918;DHT22;9084;50.956;3.106;2023-04-06T07:17:24;8.40;99.90
17918;DHT22;9084;50.956;3.106;2023-04-06T07:19:49;8.40;99.90
17918;DHT22;9084;50.956;3.106;2023-04-06T07:22:17;8.40;99.90
17918;DHT22;9084;50.956;3.106;2023-04-06T07:24:43;8.40;99.90
17918;DHT22;9084;50.956;3.106;2023-04-06T07:27:08;8.40;99.90
17918;DHT22;9084;50.956;3.106;2023-04-06T07:29:34;8.40;99.90
17918;DHT22;9084;50.956;3.106;2023-04-06T07:32:00;8.40;99.90
17918;DHT22;9084;50.956;3.106;2023-04-06T07:34:28;8.40;99.90
17918;DHT22;9084;50.956;3.106;2023-04-06T07:36:56;8.40;99.90
17918;DHT22;9084;50.956;3.106;2023-04-06T07:39:25;8.40;99.90
17918;DHT22;9084;50.956;3.106;2023-04-06T07:41:51;8.40;99.90
17918;DHT22;9084;50.956;3.106;2023-04-06T07:44:17;8.40;99.90
17918;DHT22;9084;50.956;3.106;2023-04-06T07:46:43;8.40;99.90
17918;DHT22;9084;50.956;3.106;2023-04-06T07:49:11;8.50;99.90
17918;DHT22;9084;50.956;3.106;2023-04-06T07:51:39;8.60;99.90
17918;DHT22;9084;50.956;3.106;2023-04-06T07:54:05;8.60;99.90
17918;DHT22;9084;50.956;3.106;2023-04-06T07:56:31;8.60;99.90
17918;DHT22;9084;50.956;3.106;2023-04-06T07:58:59;8.60;99.90
17918;DHT22;9084;50.956;3.106;2023-04-06T08:01:24;8.60;99.90
17918;DHT22;9084;50.956;3.106;2023-04-06T08:03:50;8.60;99.90
17918;DHT22;9084;50.956;3.106;2023-04-06T08:06:16;8.60;99.90
17918;DHT22;9084;50.956;3.106;2023-04-06T08:08:47;8.60;99.90
17918;DHT22;9084;50.956;3.106;2023-04-06T08:11:15;8.60;99.90
17918;DHT22;9084;50.956;3.106;2023-04-06T08:13:43;8.60;99.90
17918;DHT22;9084;50.956;3.106;2023-04-06T08:16:11;8.60;99.90
17918;DHT22;9084;50.956;3.106;2023-04-06T08:18:36;8.60;99.90
17918;DHT22;9084;50.956;3.106;2023-04-06T08:21:02;8.60;99.90
17918;DHT22;9084;50.956;3.106;2023-04-06T08:23:28;8.60;99.90
17918;DHT22;9084;50.956;3.106;2023-04-06T08:25:53;8.60;99.90
17918;DHT22;9084;50.956;3.106;2023-04-06T08:28:24;8.60;99.90
17918;DHT22;9084;50.956;3.106;2023-04-06T08:30:50;8.70;99.90
17918;DHT22;9084;50.956;3.106;2023-04-06T08:33:15;8.70;99.90
17918;DHT22;9084;50.956;3.106;2023-04-06T08:35:41;8.70;99.90
17918;DHT22;9084;50.956;3.106;2023-04-06T08:38:07;8.80;99.90
17918;DHT22;9084;50.956;3.106;2023-04-06T08:40:39;8.80;99.90
17918;DHT22;9084;50.956;3.106;2023-04-06T08:43:15;8.80;99.90
17918;DHT22;9084;50.956;3.106;2023-04-06T08:45:44;8.90;99.90
17918;DHT22;9084;50.956;3.106;2023-04-06T08:48:16;8.80;99.90
17918;DHT22;9084;50.956;3.106;2023-04-06T08:50:45;8.90;99.90
17918;DHT22;9084;50.956;3.106;2023-04-06T08:53:11;8.90;99.90
17918;DHT22;9084;50.956;3.106;2023-04-06T08:55:37;8.90;99.90
17918;DHT22;9084;50.956;3.106;2023-04-06T08:58:06;8.90;99.90
17918;DHT22;9084;50.956;3.106;2023-04-06T09:00:39;8.90;99.90
17918;DHT22;9084;50.956;3.106;2023-04-06T09:03:08;8.90;99.90
17918;DHT22;9084;50.956;3.106;2023-04-06T09:05:39;9.00;99.90
17918;DHT22;9084;50.956;3.106;2023-04-06T09:08:07;8.90;99.90
17918;DHT22;9084;50.956;3.106;2023-04-06T09:10:34;8.90;99.90
17918;DHT22;9084;50.956;3.106;2023-04-06T09:13:09;8.90;99.90
17918;DHT22;9084;50.956;3.106;2023-04-06T09:15:35;9.00;99.90
17918;DHT22;9084;50.956;3.106;2023-04-06T09:18:03;9.00;99.90
17918;DHT22;9084;50.956;3.106;2023-04-06T09:20:29;9.00;99.90
17918;DHT22;9084;50.956;3.106;2023-04-06T09:22:55;9.00;99.90
17918;DHT22;9084;50.956;3.106;2023-04-06T09:25:25;9.10;99.90
17918;DHT22;9084;50.956;3.106;2023-04-06T09:28:04;9.00;99.90
17918;DHT22;9084;50.956;3.106;2023-04-06T09:30:30;9.10;99.90
17918;DHT22;9084;50.956;3.106;2023-04-06T09:32:57;9.00;99.90
17918;DHT22;9084;50.956;3.106;2023-04-06T09:35:27;9.00;99.90
17918;DHT22;9084;50.956;3.106;2023-04-06T09:37:55;9.00;99.90
17918;DHT22;9084;50.956;3.106;2023-04-06T09:40:21;9.00;99.90
17918;DHT22;9084;50.956;3.106;2023-04-06T09:42:50;9.00;99.90
17918;DHT22;9084;50.956;3.106;2023-04-06T09:45:17;9.00;99.90
17918;DHT22;9084;50.956;3.106;2023-04-06T09:47:45;9.00;99.90
17918;DHT22;9084;50.956;3.106;2023-04-06T09:50:14;9.10;99.90
17918;DHT22;9084;50.956;3.106;2023-04-06T09:52:50;9.10;99.90
17918;DHT22;9084;50.956;3.106;2023-04-06T09:55:41;9.00;99.90
17918;DHT22;9084;50.956;3.106;2023-04-06T09:58:09;9.00;99.90
17918;DHT22;9084;50.956;3.106;2023-04-06T10:00:48;9.10;99.90
17918;DHT22;9084;50.956;3.106;2023-04-06T10:06:04;9.00;99.90
17918;DHT22;9084;50.956;3.106;2023-04-06T10:08:35;9.10;99.90
17918;DHT22;9084;50.956;3.106;2023-04-06T10:11:03;9.10;99.90
17918;DHT22;9084;50.956;3.106;2023-04-06T10:13:33;9.20;99.90
17918;DHT22;9084;50.956;3.106;2023-04-06T10:16:01;9.20;99.90
17918;DHT22;9084;50.956;3.106;2023-04-06T10:18:29;9.30;99.90
17918;DHT22;9084;50.956;3.106;2023-04-06T10:21:06;9.20;99.90
17918;DHT22;9084;50.956;3.106;2023-04-06T10:23:41;9.30;99.90
17918;DHT22;9084;50.956;3.106;2023-04-06T10:26:15;9.30;99.90
17918;DHT22;9084;50.956;3.106;2023-04-06T10:28:45;9.30;99.90
17918;DHT22;9084;50.956;3.106;2023-04-06T10:31:11;9.30;99.90
17918;DHT22;9084;50.956;3.106;2023-04-06T10:33:37;9.30;99.90
17918;DHT22;9084;50.956;3.106;2023-04-06T10:36:15;9.40;99.90
17918;DHT22;9084;50.956;3.106;2023-04-06T10:38:43;9.30;99.90
17918;DHT22;9084;50.956;3.106;2023-04-06T10:41:11;9.40;99.90
17918;DHT22;9084;50.956;3.106;2023-04-06T10:43:40;9.50;99.90
17918;DHT22;9084;50.956;3.106;2023-04-06T10:46:07;9.60;99.90
17918;DHT22;9084;50.956;3.106;2023-04-06T10:48:44;9.60;99.90
17918;DHT22;9084;50.956;3.106;2023-04-06T10:51:14;9.60;99.90
17918;DHT22;9084;50.956;3.106;2023-04-06T10:53:47;9.70;99.90
17918;DHT22;9084;50.956;3.106;2023-04-06T10:56:18;9.70;99.90
17918;DHT22;9084;50.956;3.106;2023-04-06T10:58:47;9.80;99.90
17918;DHT22;9084;50.956;3.106;2023-04-06T11:01:20;9.90;99.90
17918;DHT22;9084;50.956;3.106;2023-04-06T11:03:51;9.80;99.90
17918;DHT22;9084;50.956;3.106;2023-04-06T11:06:23;9.90;99.90
17918;DHT22;9084;50.956;3.106;2023-04-06T11:08:51;9.90;99.90
17918;DHT22;9084;50.956;3.106;2023-04-06T11:11:24;9.90;99.90
17918;DHT22;9084;50.956;3.106;2023-04-06T11:16:21;10.10;99.90
17918;DHT22;9084;50.956;3.106;2023-04-06T11:18:57;10.20;99.90
17918;DHT22;9084;50.956;3.106;2023-04-06T11:26:55;10.30;99.90
17918;DHT22;9084;50.956;3.106;2023-04-06T11:29:26;10.40;99.90
17918;DHT22;9084;50.956;3.106;2023-04-06T11:31:54;10.40;99.90
17918;DHT22;9084;50.956;3.106;2023-04-06T11:34:21;10.50;99.90
17918;DHT22;9084;50.956;3.106;2023-04-06T11:36:49;10.50;99.90
17918;DHT22;9084;50.956;3.106;2023-04-06T11:39:21;10.50;99.90
17918;DHT22;9084;50.956;3.106;2023-04-06T11:41:58;10.60;99.90
17918;DHT22;9084;50.956;3.106;2023-04-06T11:47:01;10.80;99.90
17918;DHT22;9084;50.956;3.106;2023-04-06T11:49:33;10.80;99.90
17918;DHT22;9084;50.956;3.106;2023-04-06T11:52:02;10.90;99.90
17918;DHT22;9084;50.956;3.106;2023-04-06T11:54:36;10.90;99.90
17918;DHT22;9084;50.956;3.106;2023-04-06T11:57:07;11.00;99.90
17918;DHT22;9084;50.956;3.106;2023-04-06T11:59:33;11.00;99.90
17918;DHT22;9084;50.956;3.106;2023-04-06T12:02:00;11.10;99.90
17918;DHT22;9084;50.956;3.106;2023-04-06T12:04:28;11.20;99.90
17918;DHT22;9084;50.956;3.106;2023-04-06T12:06:54;11.40;99.90
17918;DHT22;9084;50.956;3.106;2023-04-06T12:09:20;11.50;99.90
17918;DHT22;9084;50.956;3.106;2023-04-06T12:11:48;11.50;99.90
17918;DHT22;9084;50.956;3.106;2023-04-06T12:14:14;11.60;99.90
17918;DHT22;9084;50.956;3.106;2023-04-06T12:16:40;11.50;99.90
17918;DHT22;9084;50.956;3.106;2023-04-06T12:19:08;11.50;99.90
17918;DHT22;9084;50.956;3.106;2023-04-06T12:21:35;11.50;99.90
17918;DHT22;9084;50.956;3.106;2023-04-06T12:24:03;11.50;99.90
17918;DHT22;9084;50.956;3.106;2023-04-06T12:26:30;11.50;99.90
17918;DHT22;9084;50.956;3.106;2023-04-06T12:28:58;11.40;99.90
17918;DHT22;9084;50.956;3.106;2023-04-06T12:31:32;11.30;99.90
17918;DHT22;9084;50.956;3.106;2023-04-06T12:34:00;11.30;99.90
17918;DHT22;9084;50.956;3.106;2023-04-06T12:36:27;11.30;99.90
17918;DHT22;9084;50.956;3.106;2023-04-06T12:38:53;11.30;99.90
17918;DHT22;9084;50.956;3.106;2023-04-06T12:41:19;11.40;99.90
17918;DHT22;9084;50.956;3.106;2023-04-06T12:43:45;11.50;99.90
17918;DHT22;9084;50.956;3.106;2023-04-06T12:46:13;11.70;99.90
17918;DHT22;9084;50.956;3.106;2023-04-06T12:48:39;11.70;99.90
17918;DHT22;9084;50.956;3.106;2023-04-06T12:51:07;11.80;99.90
17918;DHT22;9084;50.956;3.106;2023-04-06T12:53:33;11.90;99.90
17918;DHT22;9084;50.956;3.106;2023-04-06T12:56:00;12.10;99.90
17918;DHT22;9084;50.956;3.106;2023-04-06T12:58:31;12.20;99.90
17918;DHT22;9084;50.956;3.106;2023-04-06T13:01:05;12.30;99.90
17918;DHT22;9084;50.956;3.106;2023-04-06T13:03:36;12.30;99.90
17918;DHT22;9084;50.956;3.106;2023-04-06T13:06:02;12.20;99.90
17918;DHT22;9084;50.956;3.106;2023-04-06T13:08:28;12.00;99.90
17918;DHT22;9084;50.956;3.106;2023-04-06T13:10:58;12.00;99.90
17918;DHT22;9084;50.956;3.106;2023-04-06T13:13:28;11.90;99.90
17918;DHT22;9084;50.956;3.106;2023-04-06T13:15:59;11.90;99.90
17918;DHT22;9084;50.956;3.106;2023-04-06T13:18:26;11.90;99.90
17918;DHT22;9084;50.956;3.106;2023-04-06T13:20:55;11.90;99.90
17918;DHT22;9084;50.956;3.106;2023-04-06T13:23:22;11.90;99.90
17918;DHT22;9084;50.956;3.106;2023-04-06T13:25:47;11.90;99.90
17918;DHT22;9084;50.956;3.106;2023-04-06T13:28:13;11.90;99.90
17918;DHT22;9084;50.956;3.106;2023-04-06T13:30:39;11.90;99.90
17918;DHT22;9084;50.956;3.106;2023-04-06T13:33:07;12.00;99.90
17918;DHT22;9084;50.956;3.106;2023-04-06T13:35:33;12.20;99.90
17918;DHT22;9084;50.956;3.106;2023-04-06T13:38:03;12.30;99.90
17918;DHT22;9084;50.956;3.106;2023-04-06T13:40:28;12.40;99.90
17918;DHT22;9084;50.956;3.106;2023-04-06T13:42:59;12.50;99.90
17918;DHT22;9084;50.956;3.106;2023-04-06T13:45:24;12.50;99.90
17918;DHT22;9084;50.956;3.106;2023-04-06T13:47:50;12.40;99.90
17918;DHT22;9084;50.956;3.106;2023-04-06T13:50:16;12.30;99.90
17918;DHT22;9084;50.956;3.106;2023-04-06T13:52:41;12.10;99.90
17918;DHT22;9084;50.956;3.106;2023-04-06T13:55:07;12.00;99.90
17918;DHT22;9084;50.956;3.106;2023-04-06T13:57:35;12.00;99.90
17918;DHT22;9084;50.956;3.106;2023-04-06T14:00:02;11.90;99.90
17918;DHT22;9084;50.956;3.106;2023-04-06T14:02:28;12.00;99.90
17918;DHT22;9084;50.956;3.106;2023-04-06T14:04:56;12.00;99.90
17918;DHT22;9084;50.956;3.106;2023-04-06T14:07:26;12.00;99.90
17918;DHT22;9084;50.956;3.106;2023-04-06T14:09:52;12.20;99.90
17918;DHT22;9084;50.956;3.106;2023-04-06T14:12:20;12.40;99.90
17918;DHT22;9084;50.956;3.106;2023-04-06T14:14:47;12.70;99.90
17918;DHT22;9084;50.956;3.106;2023-04-06T14:17:13;12.70;99.90
17918;DHT22;9084;50.956;3.106;2023-04-06T14:19:41;12.70;99.90
17918;DHT22;9084;50.956;3.106;2023-04-06T14:22:09;12.50;99.90
17918;DHT22;9084;50.956;3.106;2023-04-06T14:24:37;12.50;99.90
17918;DHT22;9084;50.956;3.106;2023-04-06T14:27:06;12.40;99.90
17918;DHT22;9084;50.956;3.106;2023-04-06T14:29:31;12.40;99.90
17918;DHT22;9084;50.956;3.106;2023-04-06T14:31:57;12.50;99.90
17918;DHT22;9084;50.956;3.106;2023-04-06T14:34:26;12.50;99.90
17918;DHT22;9084;50.956;3.106;2023-04-06T14:36:52;12.60;99.90
17918;DHT22;9084;50.956;3.106;2023-04-06T14:39:18;12.60;99.90
17918;DHT22;9084;50.956;3.106;2023-04-06T14:41:45;12.60;99.90
17918;DHT22;9084;50.956;3.106;2023-04-06T14:44:13;12.60;99.90
17918;DHT22;9084;50.956;3.106;2023-04-06T14:46:42;12.60;99.90
17918;DHT22;9084;50.956;3.106;2023-04-06T14:49:10;12.50;99.90
17918;DHT22;9084;50.956;3.106;2023-04-06T14:51:42;12.40;99.90
17918;DHT22;9084;50.956;3.106;2023-04-06T14:54:07;12.30;99.90
17918;DHT22;9084;50.956;3.106;2023-04-06T14:56:35;12.30;99.90
17918;DHT22;9084;50.956;3.106;2023-04-06T14:59:03;12.30;99.90
17918;DHT22;9084;50.956;3.106;2023-04-06T15:01:33;12.30;99.90
17918;DHT22;9084;50.956;3.106;2023-04-06T15:03:59;12.40;99.90
17918;DHT22;9084;50.956;3.106;2023-04-06T15:06:24;12.60;99.90
17918;DHT22;9084;50.956;3.106;2023-04-06T15:08:53;12.80;99.90
17918;DHT22;9084;50.956;3.106;2023-04-06T15:11:23;13.10;99.90
17918;DHT22;9084;50.956;3.106;2023-04-06T15:13:51;13.30;99.90
17918;DHT22;9084;50.956;3.106;2023-04-06T15:16:19;13.50;99.90
17918;DHT22;9084;50.956;3.106;2023-04-06T15:18:45;13.50;99.90
17918;DHT22;9084;50.956;3.106;2023-04-06T15:21:11;13.50;99.90
17918;DHT22;9084;50.956;3.106;2023-04-06T15:23:36;13.30;99.90
17918;DHT22;9084;50.956;3.106;2023-04-06T15:26:02;13.20;99.90
17918;DHT22;9084;50.956;3.106;2023-04-06T15:28:31;13.10;99.90
17918;DHT22;9084;50.956;3.106;2023-04-06T15:31:01;13.10;99.90
17918;DHT22;9084;50.956;3.106;2023-04-06T15:33:31;13.00;99.90
17918;DHT22;9084;50.956;3.106;2023-04-06T15:36:04;13.00;99.90
17918;DHT22;9084;50.956;3.106;2023-04-06T15:38:33;13.00;99.90
17918;DHT22;9084;50.956;3.106;2023-04-06T15:40:59;12.90;99.90
17918;DHT22;9084;50.956;3.106;2023-04-06T15:43:27;12.80;99.90
17918;DHT22;9084;50.956;3.106;2023-04-06T15:45:52;12.60;99.90
17918;DHT22;9084;50.956;3.106;2023-04-06T15:48:19;12.50;99.90
17918;DHT22;9084;50.956;3.106;2023-04-06T15:50:45;12.60;99.90
17918;DHT22;9084;50.956;3.106;2023-04-06T15:53:12;12.60;99.90
17918;DHT22;9084;50.956;3.106;2023-04-06T15:55:40;12.70;99.90
17918;DHT22;9084;50.956;3.106;2023-04-06T15:58:06;12.80;99.90
17918;DHT22;9084;50.956;3.106;2023-04-06T16:00:32;12.80;99.90
17918;DHT22;9084;50.956;3.106;2023-04-06T16:03:00;12.90;99.90
17918;DHT22;9084;50.956;3.106;2023-04-06T16:05:27;12.90;99.90
17918;DHT22;9084;50.956;3.106;2023-04-06T16:07:53;12.90;99.90
17918;DHT22;9084;50.956;3.106;2023-04-06T16:10:19;12.70;99.90
17918;DHT22;9084;50.956;3.106;2023-04-06T16:12:46;12.60;99.90